createdAt,value
2023-02-25T00:01:44.477Z,3.83
2023-02-25T00:04:16.754Z,4.40
2023-02-25T00:06:46.928Z,4.77
2023-02-25T00:09:15.032Z,4.83
2023-02-25T00:11:43.134Z,4.90
2023-02-25T00:14:11.256Z,4.90
2023-02-25T00:16:39.247Z,5.30
2023-02-25T00:19:07.268Z,5.13
2023-02-25T00:21:35.317Z,4.97
2023-02-25T00:24:15.971Z,5.23
2023-02-25T00:26:45.114Z,5.93
2023-02-25T00:29:13.235Z,5.27
2023-02-25T00:31:41.516Z,5.60
2023-02-25T00:34:09.795Z,6.03
2023-02-25T00:36:38.087Z,5.70
2023-02-25T00:39:09.424Z,5.73
2023-02-25T00:41:37.603Z,5.27
2023-02-25T00:44:07.216Z,5.87
2023-02-25T00:46:36.199Z,5.17
2023-02-25T00:49:05.150Z,5.43
2023-02-25T00:51:34.984Z,5.23
2023-02-25T00:54:03.136Z,6.03
2023-02-25T00:56:32.478Z,5.93
2023-02-25T00:59:01.169Z,5.70
2023-02-25T01:01:33.328Z,6.10
2023-02-25T01:04:02.563Z,5.83
2023-02-25T01:06:31.965Z,4.93
2023-02-25T01:09:00.767Z,6.03
2023-02-25T01:11:30.627Z,6.07
2023-02-25T01:14:02.037Z,6.90
2023-02-25T01:16:31.825Z,6.10
2023-02-25T01:19:02.369Z,6.27
2023-02-25T01:21:34.611Z,6.17
2023-02-25T01:24:04.686Z,6.77
2023-02-25T01:26:35.713Z,6.33
2023-02-25T01:29:07.842Z,5.77
2023-02-25T01:31:36.574Z,7.07
2023-02-25T01:34:05.994Z,6.27
2023-02-25T01:36:35.345Z,5.67
2023-02-25T01:39:04.524Z,7.10
2023-02-25T01:41:34.341Z,6.50
2023-02-25T01:44:15.899Z,6.97
2023-02-25T01:46:45.407Z,7.17
2023-02-25T01:49:17.477Z,6.80
2023-02-25T01:51:48.630Z,6.77
2023-02-25T01:54:17.794Z,6.57
2023-02-25T01:56:49.915Z,6.87
2023-02-25T01:59:22.212Z,6.57
2023-02-25T02:01:50.646Z,7.07
2023-02-25T02:04:20.799Z,7.53
2023-02-25T02:06:50.920Z,7.47
2023-02-25T02:09:21.767Z,6.97
2023-02-25T02:11:50.018Z,6.60
2023-02-25T02:14:23.650Z,7.77
2023-02-25T02:17:07.041Z,6.97
2023-02-25T02:19:50.503Z,7.83
2023-02-25T02:22:24.987Z,6.90
2023-02-25T02:25:44.277Z,8.23
2023-02-25T02:28:38.878Z,7.90
2023-02-25T02:31:37.545Z,8.53
2023-02-25T02:34:16.680Z,6.97
2023-02-25T02:36:56.463Z,7.37
2023-02-25T02:39:30.003Z,7.80
2023-02-25T02:42:06.403Z,6.40
2023-02-25T02:44:41.888Z,7.47
2023-02-25T02:47:16.329Z,7.53
2023-02-25T02:49:47.926Z,7.70
2023-02-25T02:52:19.971Z,6.97
2023-02-25T02:54:55.316Z,6.33
2023-02-25T02:57:28.179Z,6.97
2023-02-25T03:00:01.246Z,8.03
2023-02-25T03:02:36.370Z,7.70
2023-02-25T03:05:10.004Z,8.07
2023-02-25T03:07:43.706Z,7.20
2023-02-25T03:10:17.978Z,7.80
2023-02-25T03:12:46.069Z,7.53
2023-02-25T03:15:15.033Z,7.30
2023-02-25T03:17:47.173Z,6.83
2023-02-25T03:20:19.869Z,6.90
2023-02-25T03:22:50.475Z,8.30
2023-02-25T03:25:24.783Z,7.80
2023-02-25T03:27:55.303Z,8.17
2023-02-25T03:30:31.186Z,8.53
2023-02-25T03:33:05.748Z,9.00
2023-02-25T03:35:36.619Z,9.13
2023-02-25T03:38:09.214Z,9.13
2023-02-25T03:40:39.381Z,8.83
2023-02-25T03:43:10.758Z,7.97
2023-02-25T03:45:40.826Z,9.27
2023-02-25T03:48:12.099Z,9.60
2023-02-25T03:50:46.083Z,8.57
2023-02-25T03:53:14.207Z,9.27
2023-02-25T03:55:42.316Z,10.83
2023-02-25T03:58:11.130Z,9.20
2023-02-25T04:00:41.908Z,10.47
2023-02-25T04:03:12.645Z,9.73
2023-02-25T04:05:40.736Z,9.40
2023-02-25T04:08:16.223Z,9.73
2023-02-25T04:10:44.599Z,10.30
2023-02-25T04:13:13.916Z,9.13
2023-02-25T04:15:43.060Z,10.73
2023-02-25T04:18:13.353Z,9.57
2023-02-25T04:20:42.162Z,10.97
2023-02-25T04:23:14.933Z,10.73
2023-02-25T04:25:43.469Z,11.70
2023-02-25T04:28:11.981Z,11.13
2023-02-25T04:30:40.277Z,11.17
2023-02-25T04:33:08.603Z,9.53
2023-02-25T04:35:38.080Z,10.60
2023-02-25T04:38:08.765Z,10.60
2023-02-25T04:40:37.403Z,10.27
2023-02-25T04:43:05.448Z,10.90
2023-02-25T04:45:33.495Z,9.60
2023-02-25T04:48:01.870Z,9.87
2023-02-25T04:50:30.137Z,10.10
2023-02-25T04:53:02.343Z,10.63
2023-02-25T04:55:30.665Z,11.00
2023-02-25T04:57:58.804Z,10.47
2023-02-25T05:00:28.004Z,9.87
2023-02-25T05:02:56.217Z,10.63
2023-02-25T05:05:24.309Z,11.03
2023-02-25T05:07:52.325Z,10.90
2023-02-25T05:10:22.212Z,10.97
2023-02-25T05:12:50.377Z,11.27
2023-02-25T05:15:18.518Z,10.33
2023-02-25T05:17:46.575Z,10.57
2023-02-25T05:20:14.828Z,10.93
2023-02-25T05:22:43.253Z,11.03
2023-02-25T05:25:12.611Z,10.50
2023-02-25T05:27:41.951Z,11.60
2023-02-25T05:30:11.653Z,12.40
2023-02-25T05:32:40.448Z,11.10
2023-02-25T05:35:10.273Z,10.33
2023-02-25T05:37:40.215Z,12.50
2023-02-25T05:40:09.764Z,13.37
2023-02-25T05:42:38.488Z,10.80
2023-02-25T05:45:09.978Z,11.73
2023-02-25T05:47:37.977Z,11.40
2023-02-25T05:50:06.711Z,10.83
2023-02-25T05:52:34.800Z,11.30
2023-02-25T05:55:03.341Z,13.07
2023-02-25T05:57:31.675Z,11.60
2023-02-25T05:59:59.692Z,11.23
2023-02-25T06:02:29.446Z,11.30
2023-02-25T06:04:57.615Z,11.70
2023-02-25T06:07:25.725Z,12.20
2023-02-25T06:09:55.177Z,12.17
2023-02-25T06:12:23.168Z,10.50
2023-02-25T06:14:51.193Z,11.03
2023-02-25T06:17:19.272Z,12.10
2023-02-25T06:19:48.762Z,11.67
2023-02-25T06:22:17.078Z,11.07
2023-02-25T06:24:45.332Z,11.03
2023-02-25T06:27:13.945Z,10.57
2023-02-25T06:29:42.636Z,11.07
2023-02-25T06:32:11.724Z,8.33
2023-02-25T06:34:40.472Z,10.17
2023-02-25T06:37:10.341Z,9.70
2023-02-25T06:39:38.517Z,9.63
2023-02-25T06:42:06.636Z,11.10
2023-02-25T06:44:34.682Z,10.07
2023-02-25T06:47:03.019Z,9.27
2023-02-25T06:49:31.668Z,10.67
2023-02-25T06:51:59.716Z,9.87
2023-02-25T06:54:29.165Z,9.37
2023-02-25T06:56:57.141Z,9.80
2023-02-25T06:59:25.164Z,10.30
2023-02-25T07:01:53.292Z,10.07
2023-02-25T07:04:21.646Z,8.90
2023-02-25T07:06:49.863Z,8.80
2023-02-25T07:09:18.648Z,8.43
2023-02-25T07:11:48.515Z,9.10
2023-02-25T07:14:17.033Z,10.00
2023-02-25T07:16:45.086Z,9.13
2023-02-25T07:19:15.096Z,8.13
2023-02-25T07:21:43.627Z,8.43
2023-02-25T07:24:12.827Z,7.00
2023-02-25T07:26:41.149Z,7.43
2023-02-25T07:29:10.545Z,7.17
2023-02-25T07:31:38.820Z,7.20
2023-02-25T07:34:07.669Z,7.30
2023-02-25T07:36:37.987Z,6.70
2023-02-25T07:39:08.547Z,7.00
2023-02-25T07:41:37.272Z,6.73
2023-02-25T07:44:06.132Z,7.00
2023-02-25T07:46:35.849Z,6.77
2023-02-25T07:49:04.218Z,6.70
2023-02-25T07:51:32.343Z,6.63
2023-02-25T07:54:00.711Z,6.13
2023-02-25T07:56:30.899Z,6.50
2023-02-25T07:58:59.193Z,5.90
2023-02-25T08:01:29.370Z,4.70
2023-02-25T08:04:00.703Z,3.90
2023-02-25T08:06:29.350Z,3.40
2023-02-25T08:08:57.564Z,2.73
2023-02-25T08:11:27.576Z,2.60
2023-02-25T08:13:55.949Z,2.90
2023-02-25T08:16:24.338Z,2.40
2023-02-25T08:18:53.705Z,2.70
2023-02-25T08:21:24.653Z,2.80
2023-02-25T08:23:53.213Z,2.87
2023-02-25T08:26:23.544Z,2.57
2023-02-25T08:28:52.552Z,2.80
2023-02-25T08:31:22.862Z,2.53
2023-02-25T08:33:52.998Z,2.57
2023-02-25T08:36:24.869Z,2.87
2023-02-25T08:38:54.194Z,2.63
2023-02-25T08:41:23.913Z,2.80
2023-02-25T08:43:54.659Z,2.50
2023-02-25T08:46:23.971Z,2.47
2023-02-25T08:48:52.958Z,2.87
2023-02-25T08:51:25.350Z,2.80
2023-02-25T08:53:53.515Z,2.60
2023-02-25T08:56:21.542Z,2.47
2023-02-25T08:58:50.131Z,2.77
2023-02-25T09:01:19.335Z,2.30
2023-02-25T09:03:52.956Z,2.63
2023-02-25T09:06:25.038Z,2.70
2023-02-25T09:08:54.992Z,2.97
2023-02-25T09:11:24.929Z,2.57
2023-02-25T09:13:54.221Z,2.77
2023-02-25T09:16:22.862Z,3.23
2023-02-25T09:18:52.421Z,2.73
2023-02-25T09:21:22.843Z,3.07
2023-02-25T09:23:52.396Z,3.10
2023-02-25T09:26:21.726Z,3.13
2023-02-25T09:28:50.284Z,4.00
2023-02-25T09:31:19.643Z,3.90
2023-02-25T09:33:48.019Z,4.37
2023-02-25T09:36:19.088Z,3.80
2023-02-25T09:38:50.595Z,4.27
2023-02-25T09:41:29.665Z,3.80
2023-02-25T09:44:06.813Z,3.37
2023-02-25T09:46:41.400Z,3.47
2023-02-25T09:49:17.734Z,3.90
2023-02-25T09:51:49.830Z,3.20
2023-02-25T09:54:24.984Z,3.73
2023-02-25T09:56:55.783Z,3.67
2023-02-25T09:59:25.035Z,4.33
2023-02-25T10:01:58.019Z,4.47
2023-02-25T10:04:33.297Z,4.17
2023-02-25T10:07:09.965Z,3.97
2023-02-25T10:09:47.621Z,4.10
2023-02-25T10:12:29.981Z,3.57
2023-02-25T10:15:15.877Z,3.17
2023-02-25T10:17:57.191Z,3.93
2023-02-25T10:20:47.982Z,3.60
2023-02-25T10:23:27.276Z,3.43
2023-02-25T10:26:02.805Z,3.43
2023-02-25T10:28:32.526Z,3.60
2023-02-25T10:31:07.226Z,3.90
2023-02-25T10:33:37.959Z,3.60
2023-02-25T10:36:11.223Z,3.87
2023-02-25T10:38:42.246Z,3.43
2023-02-25T10:41:11.997Z,3.40
2023-02-25T10:43:40.051Z,4.23
2023-02-25T10:46:15.370Z,3.73
2023-02-25T10:48:56.658Z,3.20
2023-02-25T10:51:27.535Z,3.57
2023-02-25T10:54:14.973Z,3.10
2023-02-25T10:56:47.064Z,3.17
2023-02-25T10:59:30.211Z,3.40
2023-02-25T11:02:00.735Z,3.60
2023-02-25T11:04:38.154Z,3.43
2023-02-25T11:07:25.931Z,3.80
2023-02-25T11:10:17.210Z,3.53
2023-02-25T11:12:48.367Z,3.37
2023-02-25T11:15:44.270Z,3.73
2023-02-25T11:18:21.481Z,3.83
2023-02-25T11:20:52.390Z,3.37
2023-02-25T11:23:25.638Z,4.10
2023-02-25T11:25:55.069Z,3.73
2023-02-25T11:28:31.883Z,4.10
2023-02-25T11:31:10.348Z,4.57
2023-02-25T11:33:41.807Z,3.87
2023-02-25T11:36:10.964Z,3.33
2023-02-25T11:38:41.324Z,3.70
2023-02-25T11:41:18.649Z,3.97
2023-02-25T11:43:48.849Z,3.87
2023-02-25T11:46:23.197Z,3.50
2023-02-25T11:48:54.599Z,3.30
2023-02-25T11:51:27.759Z,3.57
2023-02-25T11:54:14.039Z,3.10
2023-02-25T11:56:48.677Z,3.80
2023-02-25T11:59:37.406Z,3.63
2023-02-25T12:02:27.748Z,3.60
2023-02-25T12:05:34.509Z,4.33
2023-02-25T12:08:33.150Z,3.40
2023-02-25T12:11:37.502Z,3.27
2023-02-25T12:14:42.784Z,2.90
2023-02-25T12:17:26.739Z,3.80
2023-02-25T12:20:27.718Z,3.43
2023-02-25T12:23:34.074Z,4.00
2023-02-25T12:26:09.751Z,2.70
2023-02-25T12:28:58.734Z,5.00
2023-02-25T12:31:59.731Z,3.30
2023-02-25T12:35:07.161Z,2.47
2023-02-25T12:37:59.377Z,2.70
2023-02-25T12:40:40.792Z,3.33
2023-02-25T12:43:25.688Z,2.93
2023-02-25T12:46:06.631Z,2.40
2023-02-25T12:49:05.998Z,3.10
2023-02-25T12:51:48.142Z,3.37
2023-02-25T12:54:48.177Z,2.57
2023-02-25T12:57:34.521Z,3.30
2023-02-25T13:00:34.489Z,2.57
2023-02-25T13:03:24.399Z,3.03
2023-02-25T13:06:07.850Z,3.57
2023-02-25T13:08:50.633Z,3.17
2023-02-25T13:11:34.566Z,3.30
2023-02-25T13:14:26.906Z,2.90
2023-02-25T13:17:14.443Z,3.33
2023-02-25T13:20:33.069Z,3.50
2023-02-25T13:23:17.587Z,4.40
2023-02-25T13:25:56.854Z,3.33
2023-02-25T13:28:39.738Z,2.97
2023-02-25T13:31:14.098Z,2.60
2023-02-25T13:33:58.021Z,2.30
2023-02-25T13:36:40.377Z,2.40
2023-02-25T13:39:23.797Z,1.83
2023-02-25T13:42:16.199Z,1.90
2023-02-25T13:45:15.124Z,2.30
2023-02-25T13:47:58.307Z,2.20
2023-02-25T13:50:56.803Z,5.43
2023-02-25T13:53:57.093Z,2.83
2023-02-25T13:56:52.338Z,2.00
2023-02-25T13:59:38.209Z,2.60
2023-02-25T14:02:20.192Z,2.00
2023-02-25T14:05:26.833Z,2.53
2023-02-25T14:08:27.438Z,1.90
2023-02-25T14:11:03.373Z,2.17
2023-02-25T14:13:59.310Z,2.70
2023-02-25T14:16:48.575Z,2.57
2023-02-25T14:19:41.591Z,4.83
2023-02-25T14:22:29.218Z,4.13
2023-02-25T14:25:08.084Z,4.00
2023-02-25T14:27:43.017Z,1.80
2023-02-25T14:30:23.007Z,2.50
2023-02-25T14:33:01.735Z,2.77
2023-02-25T14:35:56.093Z,2.63
2023-02-25T14:38:34.518Z,2.20
2023-02-25T14:41:16.678Z,2.73
2023-02-25T14:43:47.611Z,2.77
2023-02-25T14:46:26.141Z,2.43
2023-02-25T14:49:01.956Z,2.23
2023-02-25T14:51:59.958Z,2.10
2023-02-25T14:54:58.025Z,2.70
2023-02-25T14:57:56.619Z,3.07
2023-02-25T15:00:46.706Z,2.30
2023-02-25T15:03:36.810Z,3.10
2023-02-25T15:06:20.082Z,2.30
2023-02-25T15:09:38.549Z,2.80
2023-02-25T15:12:23.457Z,2.60
2023-02-25T15:15:09.130Z,2.57
2023-02-25T15:18:04.886Z,2.47
2023-02-25T15:20:39.023Z,2.40
2023-02-25T15:23:10.028Z,2.30
2023-02-25T15:25:50.854Z,2.60
2023-02-25T15:28:42.440Z,2.43
2023-02-25T15:31:28.797Z,2.17
2023-02-25T15:34:33.942Z,2.40
2023-02-25T15:37:33.955Z,2.67
2023-02-25T15:40:38.408Z,3.00
2023-02-25T15:43:38.703Z,2.47
2023-02-25T15:46:40.402Z,3.50
2023-02-25T15:49:23.388Z,3.00
2023-02-25T15:51:54.281Z,3.50
2023-02-25T15:54:51.064Z,3.30
2023-02-25T15:57:41.879Z,2.50
2023-02-25T16:00:52.869Z,2.20
2023-02-25T16:03:40.053Z,3.13
2023-02-25T16:06:14.395Z,2.27
2023-02-25T16:08:48.455Z,2.33
2023-02-25T16:11:34.933Z,3.37
2023-02-25T16:14:07.101Z,2.27
2023-02-25T16:16:37.736Z,2.90
2023-02-25T16:19:08.985Z,2.43
2023-02-25T16:21:47.245Z,3.63
2023-02-25T16:24:15.564Z,3.00
2023-02-25T16:26:51.273Z,2.20
2023-02-25T16:29:34.963Z,3.20
2023-02-25T16:32:05.572Z,2.10
2023-02-25T16:34:38.904Z,2.97
2023-02-25T16:37:15.094Z,3.27
2023-02-25T16:39:43.394Z,3.30
2023-02-25T16:42:15.115Z,4.30
2023-02-25T16:44:48.095Z,5.03
2023-02-25T16:47:24.746Z,3.20
2023-02-25T16:49:55.408Z,3.43
2023-02-25T16:52:30.409Z,2.53
2023-02-25T16:55:01.788Z,3.70
2023-02-25T16:57:29.815Z,3.00
2023-02-25T17:00:14.305Z,4.57
2023-02-25T17:02:46.991Z,4.60
2023-02-25T17:05:27.275Z,3.00
2023-02-25T17:07:59.867Z,3.63
2023-02-25T17:10:30.219Z,3.97
2023-02-25T17:12:58.955Z,2.23
2023-02-25T17:15:30.209Z,3.80
2023-02-25T17:18:04.356Z,2.63
2023-02-25T17:20:32.563Z,3.00
2023-02-25T17:23:07.287Z,3.40
2023-02-25T17:25:39.240Z,3.30
2023-02-25T17:28:09.085Z,2.70
2023-02-25T17:30:40.865Z,3.13
2023-02-25T17:33:22.241Z,3.03
2023-02-25T17:35:53.538Z,2.40
2023-02-25T17:38:24.909Z,2.90
2023-02-25T17:40:55.204Z,4.27
2023-02-25T17:43:25.231Z,4.03
2023-02-25T17:45:58.314Z,4.03
2023-02-25T17:48:28.612Z,3.40
2023-02-25T17:50:59.631Z,2.70
2023-02-25T17:53:43.303Z,2.87
2023-02-25T17:56:24.788Z,2.37
2023-02-25T17:58:54.168Z,2.87
2023-02-25T18:01:25.749Z,3.00
2023-02-25T18:03:55.094Z,2.80
2023-02-25T18:06:47.678Z,3.43
2023-02-25T18:09:47.380Z,4.87
2023-02-25T18:12:23.949Z,3.53
2023-02-25T18:14:55.780Z,4.13
2023-02-25T18:17:28.352Z,5.73
2023-02-25T18:19:57.714Z,6.13
2023-02-25T18:22:31.428Z,3.60
2023-02-25T18:25:02.890Z,4.37
2023-02-25T18:27:32.826Z,5.80
2023-02-25T18:30:15.780Z,4.27
2023-02-25T18:32:43.861Z,5.40
2023-02-25T18:35:11.958Z,7.00
2023-02-25T18:37:40.757Z,6.57
2023-02-25T18:40:16.805Z,6.37
2023-02-25T18:42:45.180Z,5.73
2023-02-25T18:45:18.197Z,5.57
2023-02-25T18:47:46.489Z,5.57
2023-02-25T18:50:15.013Z,5.10
2023-02-25T18:52:43.655Z,3.70
2023-02-25T18:55:18.589Z,3.23
2023-02-25T18:57:46.888Z,3.30
2023-02-25T19:00:16.703Z,3.83
2023-02-25T19:02:48.937Z,4.33
2023-02-25T19:05:17.758Z,3.93
2023-02-25T19:07:46.239Z,4.00
2023-02-25T19:10:19.180Z,4.03
2023-02-25T19:12:49.514Z,3.53
2023-02-25T19:15:20.625Z,3.60
2023-02-25T19:17:49.293Z,4.47
2023-02-25T19:20:19.129Z,4.17
2023-02-25T19:22:48.794Z,4.70
2023-02-25T19:25:21.890Z,3.17
2023-02-25T19:27:50.634Z,3.70
2023-02-25T19:30:23.029Z,3.70
2023-02-25T19:32:51.170Z,3.70
2023-02-25T19:35:19.479Z,3.47
2023-02-25T19:37:47.627Z,4.40
2023-02-25T19:40:18.478Z,3.20
2023-02-25T19:42:47.063Z,3.23
2023-02-25T19:45:17.338Z,4.00
2023-02-25T19:47:45.600Z,3.93
2023-02-25T19:50:14.016Z,3.17
2023-02-25T19:52:42.392Z,2.83
2023-02-25T19:55:12.404Z,2.60
2023-02-25T19:57:42.622Z,2.73
2023-02-25T20:00:13.965Z,2.87
2023-02-25T20:02:42.645Z,2.60
2023-02-25T20:05:11.721Z,3.70
2023-02-25T20:07:39.832Z,2.63
2023-02-25T20:10:11.171Z,3.37
2023-02-25T20:12:39.610Z,3.33
2023-02-25T20:15:10.881Z,2.90
2023-02-25T20:17:39.203Z,3.20
2023-02-25T20:20:09.099Z,2.97
2023-02-25T20:22:37.992Z,3.10
2023-02-25T20:25:06.955Z,3.20
2023-02-25T20:27:37.188Z,3.47
2023-02-25T20:30:06.768Z,3.80
2023-02-25T20:32:36.417Z,3.70
2023-02-25T20:35:05.281Z,4.20
2023-02-25T20:37:37.358Z,3.20
2023-02-25T20:40:08.285Z,2.90
2023-02-25T20:42:36.668Z,2.90
2023-02-25T20:45:06.274Z,2.80
2023-02-25T20:47:37.232Z,2.90
2023-02-25T20:50:08.880Z,2.30
2023-02-25T20:52:37.067Z,2.30
2023-02-25T20:55:06.755Z,2.40
2023-02-25T20:57:35.289Z,2.30
2023-02-25T21:00:03.774Z,2.37
2023-02-25T21:02:31.878Z,2.80
2023-02-25T21:05:01.545Z,2.60
2023-02-25T21:07:29.677Z,2.30
2023-02-25T21:09:57.851Z,1.97
2023-02-25T21:12:25.952Z,2.20
2023-02-25T21:14:54.071Z,2.00
2023-02-25T21:17:22.374Z,2.63
2023-02-25T21:19:50.575Z,1.97
2023-02-25T21:22:19.950Z,2.20
2023-02-25T21:24:48.071Z,2.20
2023-02-25T21:27:16.152Z,2.17
2023-02-25T21:29:44.275Z,1.90
2023-02-25T21:32:12.328Z,2.23
2023-02-25T21:34:40.502Z,2.33
2023-02-25T21:37:08.576Z,3.77
2023-02-25T21:39:38.120Z,2.30
2023-02-25T21:42:06.444Z,2.70
2023-02-25T21:44:34.537Z,2.30
2023-02-25T21:47:02.912Z,2.07
2023-02-25T21:49:31.927Z,1.90
2023-02-25T21:52:00.134Z,2.20
2023-02-25T21:54:28.445Z,2.40
2023-02-25T21:56:58.132Z,2.03
2023-02-25T21:59:27.738Z,2.17
2023-02-25T22:01:56.044Z,2.40
2023-02-25T22:04:24.171Z,1.50
2023-02-25T22:06:52.485Z,2.30
2023-02-25T22:09:20.616Z,1.90
2023-02-25T22:11:48.654Z,2.43
2023-02-25T22:14:18.110Z,2.20
2023-02-25T22:16:46.130Z,3.53
2023-02-25T22:19:14.149Z,2.30
2023-02-25T22:21:42.529Z,2.20
2023-02-25T22:24:10.912Z,2.70
2023-02-25T22:26:39.062Z,2.30
2023-02-25T22:29:09.447Z,2.23
2023-02-25T22:31:38.981Z,2.30
2023-02-25T22:34:08.336Z,2.90
2023-02-25T22:36:36.386Z,2.60
2023-02-25T22:39:06.136Z,2.67
2023-02-25T22:41:34.392Z,3.57
2023-02-25T22:44:03.095Z,3.97
2023-02-25T22:46:33.517Z,3.67
2023-02-25T22:49:04.632Z,3.07
2023-02-25T22:51:34.986Z,3.90
2023-02-25T22:54:04.824Z,2.40
2023-02-25T22:56:33.067Z,4.40
2023-02-25T22:59:01.222Z,3.47
2023-02-25T23:01:29.707Z,4.20
2023-02-25T23:03:58.552Z,2.90
2023-02-25T23:06:42.852Z,5.67
2023-02-25T23:09:12.118Z,3.57
2023-02-25T23:11:42.218Z,4.77
2023-02-25T23:14:10.664Z,3.67
2023-02-25T23:16:40.864Z,4.07
2023-02-25T23:19:11.054Z,3.47
2023-02-25T23:21:40.758Z,4.53
2023-02-25T23:24:10.361Z,4.53
2023-02-25T23:26:40.911Z,5.13
2023-02-25T23:29:10.712Z,5.10
2023-02-25T23:31:42.401Z,3.03
2023-02-25T23:34:12.978Z,3.30
2023-02-25T23:36:45.260Z,3.43
2023-02-25T23:39:15.016Z,3.90
2023-02-25T23:41:43.276Z,3.30
2023-02-25T23:44:13.829Z,2.70
2023-02-25T23:46:44.902Z,3.33
2023-02-25T23:49:15.518Z,3.23
2023-02-25T23:51:46.912Z,2.50
2023-02-25T23:54:17.683Z,2.90
2023-02-25T23:56:46.255Z,2.60
2023-02-25T23:59:14.993Z,2.33
